sensor_id;sensor_type;location;lat;lon;timestamp;temperature;humidity
4052;DHT22;2040;50.924;11.604;2023-06-19T00:02:20;17.70;99.90
4052;DHT22;2040;50.924;11.604;2023-06-19T00:04:46;17.70;99.90
4052;DHT22;2040;50.924;11.604;2023-06-19T00:07:12;17.60;99.90
4052;DHT22;2040;50.924;11.604;2023-06-19T00:09:37;17.60;99.90
4052;DHT22;2040;50.924;11.604;2023-06-19T00:12:03;17.60;99.90
4052;DHT22;2040;50.924;11.604;2023-06-19T00:14:32;17.60;99.90
4052;DHT22;2040;50.924;11.604;2023-06-19T00:16:58;17.50;99.90
4052;DHT22;2040;50.924;11.604;2023-06-19T00:19:26;17.30;99.90
4052;DHT22;2040;50.924;11.604;2023-06-19T00:21:51;17.30;99.90
4052;DHT22;2040;50.924;11.604;2023-06-19T00:24:22;17.20;99.90
4052;DHT22;2040;50.924;11.604;2023-06-19T00:26:48;17.20;99.90
4052;DHT22;2040;50.924;11.604;2023-06-19T00:29:14;17.30;99.90
4052;DHT22;2040;50.924;11.604;2023-06-19T00:31:39;17.40;99.90
4052;DHT22;2040;50.924;11.604;2023-06-19T00:34:05;17.60;99.90
4052;DHT22;2040;50.924;11.604;2023-06-19T00:36:30;17.60;99.90
4052;DHT22;2040;50.924;11.604;2023-06-19T00:38:56;17.60;99.90
4052;DHT22;2040;50.924;11.604;2023-06-19T00:41:22;17.50;99.90
4052;DHT22;2040;50.924;11.604;2023-06-19T00:43:48;17.50;99.90
4052;DHT22;2040;50.924;11.604;2023-06-19T00:46:13;17.50;99.90
4052;DHT22;2040;50.924;11.604;2023-06-19T00:48:39;17.50;99.90
4052;DHT22;2040;50.924;11.604;2023-06-19T00:51:05;17.40;99.90
4052;DHT22;2040;50.924;11.604;2023-06-19T00:53:34;17.40;99.90
4052;DHT22;2040;50.924;11.604;2023-06-19T00:56:03;17.40;99.90
4052;DHT22;2040;50.924;11.604;2023-06-19T00:58:29;17.40;99.90
4052;DHT22;2040;50.924;11.604;2023-06-19T01:00:54;17.20;99.90
4052;DHT22;2040;50.924;11.604;2023-06-19T01:03:22;17.20;99.90
4052;DHT22;2040;50.924;11.604;2023-06-19T01:05:48;17.10;99.90
4052;DHT22;2040;50.924;11.604;2023-06-19T01:11:21;17.30;99.90
4052;DHT22;2040;50.924;11.604;2023-06-19T01:13:53;17.30;99.90
4052;DHT22;2040;50.924;11.604;2023-06-19T01:16:21;17.20;99.90
4052;DHT22;2040;50.924;11.604;2023-06-19T01:18:48;17.20;99.90
4052;DHT22;2040;50.924;11.604;2023-06-19T01:21:16;17.10;99.90
4052;DHT22;2040;50.924;11.604;2023-06-19T01:23:42;17.00;99.90
4052;DHT22;2040;50.924;11.604;2023-06-19T01:26:09;17.00;99.90
4052;DHT22;2040;50.924;11.604;2023-06-19T01:28:35;16.80;99.90
4052;DHT22;2040;50.924;11.604;2023-06-19T01:31:13;16.70;99.90
4052;DHT22;2040;50.924;11.604;2023-06-19T01:33:42;16.60;99.90
4052;DHT22;2040;50.924;11.604;2023-06-19T01:36:20;16.50;99.90
4052;DHT22;2040;50.924;11.604;2023-06-19T01:38:50;16.70;99.90
4052;DHT22;2040;50.924;11.604;2023-06-19T01:41:17;17.00;99.90
4052;DHT22;2040;50.924;11.604;2023-06-19T01:43:45;17.20;99.90
4052;DHT22;2040;50.924;11.604;2023-06-19T01:46:11;17.10;99.90
4052;DHT22;2040;50.924;11.604;2023-06-19T01:48:38;17.10;99.90
4052;DHT22;2040;50.924;11.604;2023-06-19T01:51:04;17.10;99.90
4052;DHT22;2040;50.924;11.604;2023-06-19T01:53:31;17.10;99.90
4052;DHT22;2040;50.924;11.604;2023-06-19T01:56:00;17.00;99.90
4052;DHT22;2040;50.924;11.604;2023-06-19T01:58:26;17.00;99.90
4052;DHT22;2040;50.924;11.604;2023-06-19T02:00:51;16.90;99.90
4052;DHT22;2040;50.924;11.604;2023-06-19T02:03:17;16.80;99.90
4052;DHT22;2040;50.924;11.604;2023-06-19T02:05:43;16.80;99.90
4052;DHT22;2040;50.924;11.604;2023-06-19T02:08:08;16.80;99.90
4052;DHT22;2040;50.924;11.604;2023-06-19T02:10:34;16.90;99.90
4052;DHT22;2040;50.924;11.604;2023-06-19T02:13:00;17.00;99.90
4052;DHT22;2040;50.924;11.604;2023-06-19T02:15:25;16.90;99.90
4052;DHT22;2040;50.924;11.604;2023-06-19T02:17:51;16.90;99.90
4052;DHT22;2040;50.924;11.604;2023-06-19T02:20:21;16.80;99.90
4052;DHT22;2040;50.924;11.604;2023-06-19T02:22:46;16.80;99.90
4052;DHT22;2040;50.924;11.604;2023-06-19T02:25:12;16.80;99.90
4052;DHT22;2040;50.924;11.604;2023-06-19T02:27:37;16.80;99.90
4052;DHT22;2040;50.924;11.604;2023-06-19T02:30:04;16.80;99.90
4052;DHT22;2040;50.924;11.604;2023-06-19T02:32:30;16.70;99.90
4052;DHT22;2040;50.924;11.604;2023-06-19T02:34:56;16.80;99.90
4052;DHT22;2040;50.924;11.604;2023-06-19T02:37:21;16.90;99.90
4052;DHT22;2040;50.924;11.604;2023-06-19T02:39:47;16.80;99.90
4052;DHT22;2040;50.924;11.604;2023-06-19T02:42:12;16.80;99.90
4052;DHT22;2040;50.924;11.604;2023-06-19T02:44:38;16.80;99.90
4052;DHT22;2040;50.924;11.604;2023-06-19T02:47:03;16.80;99.90
4052;DHT22;2040;50.924;11.604;2023-06-19T02:49:29;16.70;99.90
4052;DHT22;2040;50.924;11.604;2023-06-19T02:51:55;16.70;99.90
4052;DHT22;2040;50.924;11.604;2023-06-19T02:54:20;16.70;99.90
4052;DHT22;2040;50.924;11.604;2023-06-19T02:56:46;16.70;99.90
4052;DHT22;2040;50.924;11.604;2023-06-19T02:59:12;16.90;99.90
4052;DHT22;2040;50.924;11.604;2023-06-19T03:01:37;16.90;99.90
4052;DHT22;2040;50.924;11.604;2023-06-19T03:04:03;17.00;99.90
4052;DHT22;2040;50.924;11.604;2023-06-19T03:06:28;17.00;99.90
4052;DHT22;2040;50.924;11.604;2023-06-19T03:08:55;17.10;99.90
4052;DHT22;2040;50.924;11.604;2023-06-19T03:11:21;17.00;99.90
4052;DHT22;2040;50.924;11.604;2023-06-19T03:13:52;17.00;99.90
4052;DHT22;2040;50.924;11.604;2023-06-19T03:16:18;17.00;99.90
4052;DHT22;2040;50.924;11.604;2023-06-19T03:18:47;16.90;99.90
4052;DHT22;2040;50.924;11.604;2023-06-19T03:21:13;16.90;99.90
4052;DHT22;2040;50.924;11.604;2023-06-19T03:23:39;17.00;99.90
4052;DHT22;2040;50.924;11.604;2023-06-19T03:26:09;17.20;99.90
4052;DHT22;2040;50.924;11.604;2023-06-19T03:28:35;17.00;99.90
4052;DHT22;2040;50.924;11.604;2023-06-19T03:31:01;17.00;99.90
4052;DHT22;2040;50.924;11.604;2023-06-19T03:33:27;17.00;99.90
4052;DHT22;2040;50.924;11.604;2023-06-19T03:35:52;17.10;99.90
4052;DHT22;2040;50.924;11.604;2023-06-19T03:38:18;17.20;99.90
4052;DHT22;2040;50.924;11.604;2023-06-19T03:40:43;17.10;99.90
4052;DHT22;2040;50.924;11.604;2023-06-19T03:43:09;17.10;99.90
4052;DHT22;2040;50.924;11.604;2023-06-19T03:45:36;17.10;99.90
4052;DHT22;2040;50.924;11.604;2023-06-19T03:48:01;17.20;99.90
4052;DHT22;2040;50.924;11.604;2023-06-19T03:50:27;17.30;99.90
4052;DHT22;2040;50.924;11.604;2023-06-19T03:52:52;17.40;99.90
4052;DHT22;2040;50.924;11.604;2023-06-19T03:55:18;17.30;99.90
4052;DHT22;2040;50.924;11.604;2023-06-19T03:57:43;17.30;99.90
4052;DHT22;2040;50.924;11.604;2023-06-19T04:00:09;17.30;99.90
4052;DHT22;2040;50.924;11.604;2023-06-19T04:02:37;17.40;99.90
4052;DHT22;2040;50.924;11.604;2023-06-19T04:05:03;17.40;99.90
4052;DHT22;2040;50.924;11.604;2023-06-19T04:07:29;17.50;99.90
4052;DHT22;2040;50.924;11.604;2023-06-19T04:09:57;17.50;99.90
4052;DHT22;2040;50.924;11.604;2023-06-19T04:12:22;17.50;99.90
4052;DHT22;2040;50.924;11.604;2023-06-19T04:14:48;17.50;99.90
4052;DHT22;2040;50.924;11.604;2023-06-19T04:17:14;17.40;99.90
4052;DHT22;2040;50.924;11.604;2023-06-19T04:19:40;17.40;99.90
4052;DHT22;2040;50.924;11.604;2023-06-19T04:22:06;17.30;99.90
4052;DHT22;2040;50.924;11.604;2023-06-19T04:24:32;17.40;99.90
4052;DHT22;2040;50.924;11.604;2023-06-19T04:26:57;17.30;99.90
4052;DHT22;2040;50.924;11.604;2023-06-19T04:29:23;17.30;99.90
4052;DHT22;2040;50.924;11.604;2023-06-19T04:31:49;17.30;99.90
4052;DHT22;2040;50.924;11.604;2023-06-19T04:34:16;17.30;99.90
4052;DHT22;2040;50.924;11.604;2023-06-19T04:36:41;17.30;99.90
4052;DHT22;2040;50.924;11.604;2023-06-19T04:39:07;17.30;99.90
4052;DHT22;2040;50.924;11.604;2023-06-19T04:41:33;17.30;99.90
4052;DHT22;2040;50.924;11.604;2023-06-19T04:43:58;17.30;99.90
4052;DHT22;2040;50.924;11.604;2023-06-19T04:46:24;17.30;99.90
4052;DHT22;2040;50.924;11.604;2023-06-19T04:48:49;17.30;99.90
4052;DHT22;2040;50.924;11.604;2023-06-19T04:51:18;17.40;99.90
4052;DHT22;2040;50.924;11.604;2023-06-19T04:53:47;17.30;99.90
4052;DHT22;2040;50.924;11.604;2023-06-19T04:56:13;17.30;99.90
4052;DHT22;2040;50.924;11.604;2023-06-19T04:58:40;17.30;99.90
4052;DHT22;2040;50.924;11.604;2023-06-19T05:01:14;17.30;99.90
4052;DHT22;2040;50.924;11.604;2023-06-19T05:03:41;17.40;99.90
4052;DHT22;2040;50.924;11.604;2023-06-19T05:06:07;17.50;99.90
4052;DHT22;2040;50.924;11.604;2023-06-19T05:08:33;17.40;99.90
4052;DHT22;2040;50.924;11.604;2023-06-19T05:10:58;17.40;99.90
4052;DHT22;2040;50.924;11.604;2023-06-19T05:13:24;17.30;99.90
4052;DHT22;2040;50.924;11.604;2023-06-19T05:15:50;17.30;99.90
4052;DHT22;2040;50.924;11.604;2023-06-19T05:18:18;17.50;99.90
4052;DHT22;2040;50.924;11.604;2023-06-19T05:20:44;17.50;99.90
4052;DHT22;2040;50.924;11.604;2023-06-19T05:23:10;17.70;99.90
4052;DHT22;2040;50.924;11.604;2023-06-19T05:25:35;17.80;99.90
4052;DHT22;2040;50.924;11.604;2023-06-19T05:28:01;17.90;99.90
4052;DHT22;2040;50.924;11.604;2023-06-19T05:30:26;17.80;99.90
4052;DHT22;2040;50.924;11.604;2023-06-19T05:32:52;18.00;99.90
4052;DHT22;2040;50.924;11.604;2023-06-19T05:35:18;18.40;99.90
4052;DHT22;2040;50.924;11.604;2023-06-19T05:37:43;18.40;99.90
4052;DHT22;2040;50.924;11.604;2023-06-19T05:40:10;18.10;99.90
4052;DHT22;2040;50.924;11.604;2023-06-19T05:42:40;17.90;99.90
4052;DHT22;2040;50.924;11.604;2023-06-19T05:45:06;17.80;99.90
4052;DHT22;2040;50.924;11.604;2023-06-19T05:47:32;17.70;99.90
4052;DHT22;2040;50.924;11.604;2023-06-19T05:49:58;17.70;99.90
4052;DHT22;2040;50.924;11.604;2023-06-19T05:52:25;17.80;99.90
4052;DHT22;2040;50.924;11.604;2023-06-19T05:54:51;18.00;99.90
4052;DHT22;2040;50.924;11.604;2023-06-19T05:57:17;18.00;99.90
4052;DHT22;2040;50.924;11.604;2023-06-19T05:59:47;18.00;99.90
4052;DHT22;2040;50.924;11.604;2023-06-19T06:02:13;18.00;99.90
4052;DHT22;2040;50.924;11.604;2023-06-19T06:04:38;18.00;99.90
4052;DHT22;2040;50.924;11.604;2023-06-19T06:07:05;18.00;99.90
4052;DHT22;2040;50.924;11.604;2023-06-19T06:09:30;18.20;99.90
4052;DHT22;2040;50.924;11.604;2023-06-19T06:11:56;18.30;99.90
4052;DHT22;2040;50.924;11.604;2023-06-19T06:14:23;18.30;99.90
4052;DHT22;2040;50.924;11.604;2023-06-19T06:16:49;18.40;99.90
4052;DHT22;2040;50.924;11.604;2023-06-19T06:19:14;18.40;99.90
4052;DHT22;2040;50.924;11.604;2023-06-19T06:21:40;18.40;99.90
4052;DHT22;2040;50.924;11.604;2023-06-19T06:24:06;18.50;99.90
4052;DHT22;2040;50.924;11.604;2023-06-19T06:26:32;18.50;99.90
4052;DHT22;2040;50.924;11.604;2023-06-19T06:28:58;18.50;99.90
4052;DHT22;2040;50.924;11.604;2023-06-19T06:31:24;18.60;99.90
4052;DHT22;2040;50.924;11.604;2023-06-19T06:33:50;18.70;99.90
4052;DHT22;2040;50.924;11.604;2023-06-19T06:36:15;18.80;99.90
4052;DHT22;2040;50.924;11.604;2023-06-19T06:38:41;18.70;99.90
4052;DHT22;2040;50.924;11.604;2023-06-19T06:41:07;18.80;99.90
4052;DHT22;2040;50.924;11.604;2023-06-19T06:43:33;18.80;99.90
4052;DHT22;2040;50.924;11.604;2023-06-19T06:45:59;18.90;99.90
4052;DHT22;2040;50.924;11.604;2023-06-19T06:48:25;19.10;99.90
4052;DHT22;2040;50.924;11.604;2023-06-19T06:50:50;19.20;99.90
4052;DHT22;2040;50.924;11.604;2023-06-19T06:53:24;19.20;99.90
4052;DHT22;2040;50.924;11.604;2023-06-19T06:55:50;19.30;99.90
4052;DHT22;2040;50.924;11.604;2023-06-19T06:58:16;19.40;99.90
4052;DHT22;2040;50.924;11.604;2023-06-19T07:00:43;19.50;99.90
4052;DHT22;2040;50.924;11.604;2023-06-19T07:03:08;19.50;99.90
4052;DHT22;2040;50.924;11.604;2023-06-19T07:05:34;19.70;99.90
4052;DHT22;2040;50.924;11.604;2023-06-19T07:08:00;19.90;99.90
4052;DHT22;2040;50.924;11.604;2023-06-19T07:10:25;20.10;99.90
4052;DHT22;2040;50.924;11.604;2023-06-19T07:12:51;20.20;99.90
4052;DHT22;2040;50.924;11.604;2023-06-19T07:15:16;20.30;99.90
4052;DHT22;2040;50.924;11.604;2023-06-19T07:17:44;20.30;99.90
4052;DHT22;2040;50.924;11.604;2023-06-19T07:20:10;20.20;99.90
4052;DHT22;2040;50.924;11.604;2023-06-19T07:22:36;20.30;99.90
4052;DHT22;2040;50.924;11.604;2023-06-19T07:25:02;20.50;99.90
4052;DHT22;2040;50.924;11.604;2023-06-19T07:27:29;20.70;99.90
4052;DHT22;2040;50.924;11.604;2023-06-19T07:29:55;20.80;99.90
4052;DHT22;2040;50.924;11.604;2023-06-19T07:32:20;20.90;99.90
4052;DHT22;2040;50.924;11.604;2023-06-19T07:34:46;21.00;99.90
4052;DHT22;2040;50.924;11.604;2023-06-19T07:37:11;21.00;99.90
4052;DHT22;2040;50.924;11.604;2023-06-19T07:39:44;21.00;99.90
4052;DHT22;2040;50.924;11.604;2023-06-19T07:42:10;21.10;99.90
4052;DHT22;2040;50.924;11.604;2023-06-19T07:44:36;21.00;99.90
4052;DHT22;2040;50.924;11.604;2023-06-19T07:47:01;21.10;99.90
4052;DHT22;2040;50.924;11.604;2023-06-19T07:49:27;20.90;99.90
4052;DHT22;2040;50.924;11.604;2023-06-19T07:51:52;20.90;99.90
4052;DHT22;2040;50.924;11.604;2023-06-19T07:54:18;21.00;99.90
4052;DHT22;2040;50.924;11.604;2023-06-19T07:56:43;20.90;99.90
4052;DHT22;2040;50.924;11.604;2023-06-19T07:59:09;21.00;99.90
4052;DHT22;2040;50.924;11.604;2023-06-19T08:01:34;21.10;99.90
4052;DHT22;2040;50.924;11.604;2023-06-19T08:04:00;21.30;99.90
4052;DHT22;2040;50.924;11.604;2023-06-19T08:06:27;21.30;99.90
4052;DHT22;2040;50.924;11.604;2023-06-19T08:08:52;21.50;99.90
4052;DHT22;2040;50.924;11.604;2023-06-19T08:11:18;21.60;99.90
4052;DHT22;2040;50.924;11.604;2023-06-19T08:13:43;21.60;99.90
4052;DHT22;2040;50.924;11.604;2023-06-19T08:16:09;21.70;99.90
4052;DHT22;2040;50.924;11.604;2023-06-19T08:18:36;21.80;99.90
4052;DHT22;2040;50.924;11.604;2023-06-19T08:21:01;21.70;99.90
4052;DHT22;2040;50.924;11.604;2023-06-19T08:23:27;21.90;99.90
4052;DHT22;2040;50.924;11.604;2023-06-19T08:25:52;22.00;99.90
4052;DHT22;2040;50.924;11.604;2023-06-19T08:28:18;22.10;99.90
4052;DHT22;2040;50.924;11.604;2023-06-19T08:30:45;22.20;99.90
4052;DHT22;2040;50.924;11.604;2023-06-19T08:33:12;22.40;99.90
4052;DHT22;2040;50.924;11.604;2023-06-19T08:35:38;22.50;99.90
4052;DHT22;2040;50.924;11.604;2023-06-19T08:38:03;22.60;99.90
4052;DHT22;2040;50.924;11.604;2023-06-19T08:40:29;22.40;99.90
4052;DHT22;2040;50.924;11.604;2023-06-19T08:42:55;22.60;99.90
4052;DHT22;2040;50.924;11.604;2023-06-19T08:45:21;22.70;99.90
4052;DHT22;2040;50.924;11.604;2023-06-19T08:47:48;23.10;99.90
4052;DHT22;2040;50.924;11.604;2023-06-19T08:50:15;23.40;99.90
4052;DHT22;2040;50.924;11.604;2023-06-19T08:52:41;23.60;99.90
4052;DHT22;2040;50.924;11.604;2023-06-19T08:55:07;23.80;99.90
4052;DHT22;2040;50.924;11.604;2023-06-19T08:57:38;24.00;99.90
4052;DHT22;2040;50.924;11.604;2023-06-19T09:00:05;24.10;99.90
4052;DHT22;2040;50.924;11.604;2023-06-19T09:02:44;24.40;99.90
4052;DHT22;2040;50.924;11.604;2023-06-19T09:05:15;24.40;99.90
4052;DHT22;2040;50.924;11.604;2023-06-19T09:07:41;24.40;99.90
4052;DHT22;2040;50.924;11.604;2023-06-19T09:10:15;24.60;99.90
4052;DHT22;2040;50.924;11.604;2023-06-19T09:12:43;24.70;99.90
4052;DHT22;2040;50.924;11.604;2023-06-19T09:15:15;24.80;99.90
4052;DHT22;2040;50.924;11.604;2023-06-19T09:17:41;24.80;99.90
4052;DHT22;2040;50.924;11.604;2023-06-19T09:20:07;24.80;99.90
4052;DHT22;2040;50.924;11.604;2023-06-19T09:22:34;24.50;99.90
4052;DHT22;2040;50.924;11.604;2023-06-19T09:25:01;24.50;99.90
4052;DHT22;2040;50.924;11.604;2023-06-19T09:27:32;24.60;99.90
4052;DHT22;2040;50.924;11.604;2023-06-19T09:29:58;24.60;99.90
4052;DHT22;2040;50.924;11.604;2023-06-19T09:32:30;24.80;99.90
4052;DHT22;2040;50.924;11.604;2023-06-19T09:34:57;24.90;99.90
4052;DHT22;2040;50.924;11.604;2023-06-19T09:37:27;25.00;99.90
4052;DHT22;2040;50.924;11.604;2023-06-19T09:40:01;24.90;99.90
4052;DHT22;2040;50.924;11.604;2023-06-19T09:42:33;24.90;99.90
4052;DHT22;2040;50.924;11.604;2023-06-19T09:45:07;24.90;99.90
4052;DHT22;2040;50.924;11.604;2023-06-19T09:47:38;25.00;99.90
4052;DHT22;2040;50.924;11.604;2023-06-19T09:50:05;25.10;99.90
4052;DHT22;2040;50.924;11.604;2023-06-19T09:52:32;25.10;99.90
4052;DHT22;2040;50.924;11.604;2023-06-19T09:54:57;25.20;99.90
4052;DHT22;2040;50.924;11.604;2023-06-19T09:57:26;25.40;99.90
4052;DHT22;2040;50.924;11.604;2023-06-19T09:59:55;25.60;99.90
4052;DHT22;2040;50.924;11.604;2023-06-19T10:02:25;25.90;99.90
4052;DHT22;2040;50.924;11.604;2023-06-19T10:04:53;26.00;99.90
4052;DHT22;2040;50.924;11.604;2023-06-19T10:07:42;26.30;99.90
4052;DHT22;2040;50.924;11.604;2023-06-19T10:10:09;26.70;99.90
4052;DHT22;2040;50.924;11.604;2023-06-19T10:12:44;27.00;99.90
4052;DHT22;2040;50.924;11.604;2023-06-19T10:15:20;27.00;99.90
4052;DHT22;2040;50.924;11.604;2023-06-19T10:17:49;27.00;99.90
4052;DHT22;2040;50.924;11.604;2023-06-19T10:20:27;27.40;99.90
4052;DHT22;2040;50.924;11.604;2023-06-19T10:23:04;27.70;99.90
4052;DHT22;2040;50.924;11.604;2023-06-19T10:25:32;27.90;99.90
4052;DHT22;2040;50.924;11.604;2023-06-19T10:27:59;28.00;99.90
4052;DHT22;2040;50.924;11.604;2023-06-19T10:30:24;28.10;99.90
4052;DHT22;2040;50.924;11.604;2023-06-19T10:32:50;28.00;99.90
4052;DHT22;2040;50.924;11.604;2023-06-19T10:35:17;28.30;99.90
4052;DHT22;2040;50.924;11.604;2023-06-19T10:37:43;28.50;99.90
4052;DHT22;2040;50.924;11.604;2023-06-19T10:40:10;28.30;99.90
4052;DHT22;2040;50.924;11.604;2023-06-19T10:42:38;28.30;99.90
4052;DHT22;2040;50.924;11.604;2023-06-19T10:45:09;28.40;99.90
4052;DHT22;2040;50.924;11.604;2023-06-19T10:47:37;28.60;99.90
4052;DHT22;2040;50.924;11.604;2023-06-19T10:50:02;28.50;99.90
4052;DHT22;2040;50.924;11.604;2023-06-19T10:52:29;28.50;99.90
4052;DHT22;2040;50.924;11.604;2023-06-19T10:54:55;28.30;99.90
4052;DHT22;2040;50.924;11.604;2023-06-19T10:57:31;28.30;99.90
4052;DHT22;2040;50.924;11.604;2023-06-19T10:59:57;28.30;99.90
4052;DHT22;2040;50.924;11.604;2023-06-19T11:02:26;28.30;99.90
4052;DHT22;2040;50.924;11.604;2023-06-19T11:04:55;28.40;99.90
4052;DHT22;2040;50.924;11.604;2023-06-19T11:07:22;28.60;99.90
4052;DHT22;2040;50.924;11.604;2023-06-19T11:09:49;29.00;99.90
4052;DHT22;2040;50.924;11.604;2023-06-19T11:12:21;29.30;99.90
4052;DHT22;2040;50.924;11.604;2023-06-19T11:14:48;29.50;99.90
4052;DHT22;2040;50.924;11.604;2023-06-19T11:17:14;29.80;99.90
4052;DHT22;2040;50.924;11.604;2023-06-19T11:19:40;29.90;99.90
4052;DHT22;2040;50.924;11.604;2023-06-19T11:22:07;29.90;99.90
4052;DHT22;2040;50.924;11.604;2023-06-19T11:24:33;29.80;99.90
4052;DHT22;2040;50.924;11.604;2023-06-19T11:26:59;29.50;99.90
4052;DHT22;2040;50.924;11.604;2023-06-19T11:29:28;29.50;99.90
4052;DHT22;2040;50.924;11.604;2023-06-19T11:32:08;29.60;99.90
4052;DHT22;2040;50.924;11.604;2023-06-19T11:34:36;29.90;99.90
4052;DHT22;2040;50.924;11.604;2023-06-19T11:37:15;29.90;99.90
4052;DHT22;2040;50.924;11.604;2023-06-19T11:39:44;30.20;99.90
4052;DHT22;2040;50.924;11.604;2023-06-19T11:42:09;30.50;99.90
4052;DHT22;2040;50.924;11.604;2023-06-19T11:44:35;30.70;99.90
4052;DHT22;2040;50.924;11.604;2023-06-19T11:47:01;30.90;99.90
4052;DHT22;2040;50.924;11.604;2023-06-19T11:49:35;31.00;99.50
4052;DHT22;2040;50.924;11.604;2023-06-19T11:52:00;31.30;99.20
4052;DHT22;2040;50.924;11.604;2023-06-19T11:54:26;31.00;99.80
4052;DHT22;2040;50.924;11.604;2023-06-19T11:56:51;30.90;99.50
4052;DHT22;2040;50.924;11.604;2023-06-19T11:59:17;31.00;99.20
4052;DHT22;2040;50.924;11.604;2023-06-19T12:01:44;31.20;99.30
4052;DHT22;2040;50.924;11.604;2023-06-19T12:04:09;31.40;98.50
4052;DHT22;2040;50.924;11.604;2023-06-19T12:06:35;31.80;98.60
4052;DHT22;2040;50.924;11.604;2023-06-19T12:09:02;32.10;99.90
4052;DHT22;2040;50.924;11.604;2023-06-19T12:11:31;32.30;98.00
4052;DHT22;2040;50.924;11.604;2023-06-19T12:13:56;32.20;97.60
4052;DHT22;2040;50.924;11.604;2023-06-19T12:16:23;32.30;98.20
4052;DHT22;2040;50.924;11.604;2023-06-19T12:18:48;32.60;97.30
4052;DHT22;2040;50.924;11.604;2023-06-19T12:21:14;32.30;97.50
4052;DHT22;2040;50.924;11.604;2023-06-19T12:23:39;32.30;96.50
4052;DHT22;2040;50.924;11.604;2023-06-19T12:26:05;32.10;97.00
4052;DHT22;2040;50.924;11.604;2023-06-19T12:28:31;32.00;95.50
4052;DHT22;2040;50.924;11.604;2023-06-19T12:30:56;31.30;95.60
4052;DHT22;2040;50.924;11.604;2023-06-19T12:33:23;31.40;97.30
4052;DHT22;2040;50.924;11.604;2023-06-19T12:35:49;31.80;97.40
4052;DHT22;2040;50.924;11.604;2023-06-19T12:38:15;31.90;97.40
4052;DHT22;2040;50.924;11.604;2023-06-19T12:40:40;32.30;95.40
4052;DHT22;2040;50.924;11.604;2023-06-19T12:43:07;32.60;96.10
4052;DHT22;2040;50.924;11.604;2023-06-19T12:45:35;32.60;94.90
4052;DHT22;2040;50.924;11.604;2023-06-19T12:48:00;32.90;94.00
4052;DHT22;2040;50.924;11.604;2023-06-19T12:50:26;32.80;95.50
4052;DHT22;2040;50.924;11.604;2023-06-19T12:52:51;32.70;96.60
4052;DHT22;2040;50.924;11.604;2023-06-19T12:55:17;32.70;96.10
4052;DHT22;2040;50.924;11.604;2023-06-19T12:57:51;32.80;95.00
4052;DHT22;2040;50.924;11.604;2023-06-19T13:00:17;33.20;95.10
4052;DHT22;2040;50.924;11.604;2023-06-19T13:02:43;33.30;95.10
4052;DHT22;2040;50.924;11.604;2023-06-19T13:05:13;33.00;94.30
4052;DHT22;2040;50.924;11.604;2023-06-19T13:07:42;32.10;93.60
4052;DHT22;2040;50.924;11.604;2023-06-19T13:10:08;32.10;94.30
4052;DHT22;2040;50.924;11.604;2023-06-19T13:12:37;31.80;94.10
4052;DHT22;2040;50.924;11.604;2023-06-19T13:15:13;31.60;94.90
4052;DHT22;2040;50.924;11.604;2023-06-19T13:17:48;31.60;95.20
4052;DHT22;2040;50.924;11.604;2023-06-19T13:20:13;31.20;95.00
4052;DHT22;2040;50.924;11.604;2023-06-19T13:22:43;30.80;95.40
4052;DHT22;2040;50.924;11.604;2023-06-19T13:25:28;30.90;96.90
4052;DHT22;2040;50.924;11.604;2023-06-19T13:27:54;30.50;97.10
4052;DHT22;2040;50.924;11.604;2023-06-19T13:30:20;29.90;99.90
4052;DHT22;2040;50.924;11.604;2023-06-19T13:32:46;29.80;99.90
4052;DHT22;2040;50.924;11.604;2023-06-19T13:35:14;29.60;99.90
4052;DHT22;2040;50.924;11.604;2023-06-19T13:37:42;29.90;98.80
4052;DHT22;2040;50.924;11.604;2023-06-19T13:40:10;29.90;98.70
4052;DHT22;2040;50.924;11.604;2023-06-19T13:42:39;30.00;99.90
4052;DHT22;2040;50.924;11.604;2023-06-19T13:45:05;29.70;99.90
4052;DHT22;2040;50.924;11.604;2023-06-19T13:47:33;29.20;99.90
4052;DHT22;2040;50.924;11.604;2023-06-19T13:49:59;29.10;99.90
4052;DHT22;2040;50.924;11.604;2023-06-19T13:52:25;28.80;99.90
4052;DHT22;2040;50.924;11.604;2023-06-19T13:54:52;28.80;99.90
4052;DHT22;2040;50.924;11.604;2023-06-19T13:57:17;28.70;99.90
4052;DHT22;2040;50.924;11.604;2023-06-19T13:59:46;28.70;99.90
4052;DHT22;2040;50.924;11.604;2023-06-19T14:02:19;28.90;99.90
4052;DHT22;2040;50.924;11.604;2023-06-19T14:04:46;28.60;99.90
4052;DHT22;2040;50.924;11.604;2023-06-19T14:07:20;28.50;99.90
4052;DHT22;2040;50.924;11.604;2023-06-19T14:09:48;28.70;99.90
4052;DHT22;2040;50.924;11.604;2023-06-19T14:12:14;29.10;99.90
4052;DHT22;2040;50.924;11.604;2023-06-19T14:14:40;29.60;99.90
4052;DHT22;2040;50.924;11.604;2023-06-19T14:17:05;30.00;99.90
4052;DHT22;2040;50.924;11.604;2023-06-19T14:19:31;30.30;99.90
4052;DHT22;2040;50.924;11.604;2023-06-19T14:21:57;30.20;99.90
4052;DHT22;2040;50.924;11.604;2023-06-19T14:24:22;30.30;99.90
4052;DHT22;2040;50.924;11.604;2023-06-19T14:26:49;30.40;99.90
4052;DHT22;2040;50.924;11.604;2023-06-19T14:29:15;30.70;99.90
4052;DHT22;2040;50.924;11.604;2023-06-19T14:31:44;30.70;99.90
4052;DHT22;2040;50.924;11.604;2023-06-19T14:34:09;30.80;99.90
4052;DHT22;2040;50.924;11.604;2023-06-19T14:36:37;31.00;99.90
4052;DHT22;2040;50.924;11.604;2023-06-19T14:39:03;31.20;99.90
4052;DHT22;2040;50.924;11.604;2023-06-19T14:41:28;31.30;99.90
4052;DHT22;2040;50.924;11.604;2023-06-19T14:43:54;31.20;99.90
4052;DHT22;2040;50.924;11.604;2023-06-19T14:46:19;31.30;99.90
4052;DHT22;2040;50.924;11.604;2023-06-19T14:48:45;31.10;99.90
4052;DHT22;2040;50.924;11.604;2023-06-19T14:51:10;31.00;99.90
4052;DHT22;2040;50.924;11.604;2023-06-19T14:53:37;31.00;99.90
4052;DHT22;2040;50.924;11.604;2023-06-19T14:56:03;30.70;99.90
4052;DHT22;2040;50.924;11.604;2023-06-19T14:58:28;30.50;99.90
4052;DHT22;2040;50.924;11.604;2023-06-19T15:00:54;30.20;99.90
4052;DHT22;2040;50.924;11.604;2023-06-19T15:03:20;30.30;99.90
4052;DHT22;2040;50.924;11.604;2023-06-19T15:05:45;30.00;99.90
4052;DHT22;2040;50.924;11.604;2023-06-19T15:08:11;30.00;99.90
4052;DHT22;2040;50.924;11.604;2023-06-19T15:10:37;29.90;99.90
4052;DHT22;2040;50.924;11.604;2023-06-19T15:13:03;29.70;99.90
4052;DHT22;2040;50.924;11.604;2023-06-19T15:15:28;29.60;99.90
4052;DHT22;2040;50.924;11.604;2023-06-19T15:17:54;29.60;99.90
4052;DHT22;2040;50.924;11.604;2023-06-19T15:20:19;29.90;99.90
4052;DHT22;2040;50.924;11.604;2023-06-19T15:22:46;30.10;99.90
4052;DHT22;2040;50.924;11.604;2023-06-19T15:25:12;30.00;99.90
4052;DHT22;2040;50.924;11.604;2023-06-19T15:27:38;30.30;99.90
4052;DHT22;2040;50.924;11.604;2023-06-19T15:30:04;30.50;99.90
4052;DHT22;2040;50.924;11.604;2023-06-19T15:32:30;30.20;99.90
4052;DHT22;2040;50.924;11.604;2023-06-19T15:34:55;30.20;99.90
4052;DHT22;2040;50.924;11.604;2023-06-19T15:37:21;30.20;99.90
4052;DHT22;2040;50.924;11.604;2023-06-19T15:39:46;30.30;99.90
4052;DHT22;2040;50.924;11.604;2023-06-19T15:42:12;30.30;99.90
4052;DHT22;2040;50.924;11.604;2023-06-19T15:44:38;30.20;99.90
4052;DHT22;2040;50.924;11.604;2023-06-19T15:47:03;30.10;99.90